createdAt,value
2022-11-17T00:01:26.888Z,100.00
2022-11-17T00:04:14.829Z,100.00
2022-11-17T00:07:02.831Z,100.00
2022-11-17T00:09:52.208Z,100.00
2022-11-17T00:12:57.973Z,100.00
2022-11-17T00:15:45.946Z,100.00
2022-11-17T00:18:51.309Z,100.00
2022-11-17T00:21:39.258Z,100.00
2022-11-17T00:24:27.179Z,100.00
2022-11-17T00:27:17.413Z,100.00
2022-11-17T00:30:06.379Z,100.00
2022-11-17T00:33:11.762Z,100.00
2022-11-17T00:36:00.028Z,100.00
2022-11-17T00:38:47.965Z,100.00
2022-11-17T00:41:35.897Z,100.00
2022-11-17T00:44:25.137Z,100.00
2022-11-17T00:47:13.151Z,100.00
2022-11-17T00:50:01.031Z,100.00
2022-11-17T00:52:48.928Z,100.00
2022-11-17T00:55:36.840Z,100.00
2022-11-17T00:58:24.785Z,100.00
2022-11-17T01:01:14.484Z,100.00
2022-11-17T01:04:06.216Z,100.00
2022-11-17T01:06:54.199Z,100.00
2022-11-17T01:09:42.143Z,100.00
2022-11-17T01:12:30.063Z,100.00
2022-11-17T01:15:18.112Z,100.00
2022-11-17T01:18:07.388Z,100.00
2022-11-17T01:20:55.296Z,100.00
2022-11-17T01:23:44.494Z,100.00
2022-11-17T01:26:35.064Z,100.00
2022-11-17T01:29:23.142Z,100.00
2022-11-17T01:32:11.042Z,100.00
2022-11-17T01:35:00.295Z,100.00
2022-11-17T01:37:48.171Z,100.00
2022-11-17T01:40:36.067Z,100.00
2022-11-17T01:43:37.841Z,100.00
2022-11-17T01:46:31.502Z,100.00
2022-11-17T01:49:24.830Z,100.00
2022-11-17T01:52:14.934Z,100.00
2022-11-17T01:55:04.175Z,100.00
2022-11-17T01:57:55.216Z,100.00
2022-11-17T02:00:43.166Z,100.00
2022-11-17T02:03:34.497Z,100.00
2022-11-17T02:06:29.874Z,100.00
2022-11-17T02:09:19.828Z,100.00
2022-11-17T02:12:10.193Z,100.00
2022-11-17T02:14:58.152Z,100.00
2022-11-17T02:17:46.078Z,100.00
2022-11-17T02:20:44.318Z,100.00
2022-11-17T02:23:54.041Z,100.00
2022-11-17T02:27:20.085Z,100.00
2022-11-17T02:30:11.765Z,100.00
2022-11-17T02:33:04.458Z,100.00
2022-11-17T02:35:58.094Z,100.00
2022-11-17T02:38:55.332Z,100.00
2022-11-17T02:41:50.381Z,100.00
2022-11-17T02:44:44.375Z,100.00
2022-11-17T02:47:36.927Z,100.00
2022-11-17T02:50:28.727Z,100.00
2022-11-17T02:53:17.452Z,100.00
2022-11-17T02:56:06.053Z,100.00
2022-11-17T02:58:58.847Z,100.00
2022-11-17T03:02:20.450Z,100.00
2022-11-17T03:05:17.451Z,100.00
2022-11-17T03:08:18.307Z,100.00
2022-11-17T03:11:09.050Z,100.00
2022-11-17T03:14:07.249Z,100.00
2022-11-17T03:17:02.143Z,100.00
2022-11-17T03:19:58.645Z,100.00
2022-11-17T03:22:53.835Z,100.00
2022-11-17T03:25:46.557Z,100.00
2022-11-17T03:28:34.972Z,100.00
2022-11-17T03:31:29.545Z,100.00
2022-11-17T03:34:22.978Z,100.00
2022-11-17T03:37:14.832Z,95.58
2022-11-17T03:40:08.562Z,89.45
2022-11-17T03:43:00.850Z,84.14
2022-11-17T03:45:50.927Z,85.48
2022-11-17T03:48:43.846Z,84.94
2022-11-17T03:51:33.680Z,89.73
2022-11-17T03:54:21.820Z,92.45
2022-11-17T04:00:08.102Z,91.93
2022-11-17T04:03:01.892Z,93.45
2022-11-17T04:05:49.813Z,93.12
2022-11-17T04:08:37.666Z,94.35
2022-11-17T04:11:42.936Z,95.36
2022-11-17T04:14:49.544Z,100.00
2022-11-17T04:17:37.580Z,100.00
2022-11-17T04:20:25.506Z,100.00
2022-11-17T04:23:15.011Z,100.00
2022-11-17T04:26:20.823Z,100.00
2022-11-17T04:29:09.007Z,100.00
2022-11-17T04:31:58.187Z,100.00
2022-11-17T04:34:46.080Z,100.00
2022-11-17T04:37:34.154Z,100.00
2022-11-17T04:40:22.025Z,100.00
2022-11-17T04:43:08.936Z,100.00
2022-11-17T04:45:59.589Z,100.00
2022-11-17T04:48:49.359Z,100.00
2022-11-17T04:51:37.555Z,100.00
2022-11-17T04:54:25.895Z,100.00
2022-11-17T04:57:13.781Z,100.00
2022-11-17T05:00:01.768Z,100.00
2022-11-17T05:02:49.643Z,100.00
2022-11-17T05:05:38.871Z,100.00
2022-11-17T05:08:26.743Z,100.00
2022-11-17T05:11:33.859Z,100.00
2022-11-17T05:14:24.067Z,100.00
2022-11-17T05:17:11.968Z,100.00
2022-11-17T05:20:01.165Z,100.00
2022-11-17T05:23:08.360Z,100.00
2022-11-17T05:25:56.277Z,100.00
2022-11-17T05:28:44.766Z,100.00
2022-11-17T05:31:32.936Z,100.00
2022-11-17T05:34:20.827Z,100.00
2022-11-17T05:37:08.769Z,100.00
2022-11-17T05:39:58.045Z,100.00
2022-11-17T05:42:45.910Z,100.00
2022-11-17T05:45:33.800Z,100.00
2022-11-17T05:48:21.955Z,100.00
2022-11-17T05:51:10.714Z,100.00
2022-11-17T05:53:58.715Z,100.00
2022-11-17T05:56:50.956Z,100.00
2022-11-17T05:59:43.599Z,100.00
2022-11-17T06:02:36.578Z,100.00
2022-11-17T06:05:25.776Z,100.00
2022-11-17T06:08:13.734Z,100.00
2022-11-17T06:11:01.666Z,100.00
2022-11-17T06:13:50.869Z,100.00
2022-11-17T06:16:44.829Z,100.00
2022-11-17T06:19:41.346Z,100.00
2022-11-17T06:22:30.753Z,100.00
2022-11-17T06:25:20.679Z,100.00
2022-11-17T06:28:11.860Z,100.00
2022-11-17T06:31:01.692Z,100.00
2022-11-17T06:33:49.778Z,100.00
2022-11-17T06:36:37.854Z,100.00
2022-11-17T06:39:25.768Z,100.00
2022-11-17T06:42:13.650Z,100.00
2022-11-17T06:45:01.543Z,100.00
2022-11-17T06:47:53.413Z,100.00
2022-11-17T06:50:41.602Z,100.00
2022-11-17T06:53:29.529Z,100.00
2022-11-17T06:56:18.166Z,100.00
2022-11-17T06:59:06.298Z,100.00
2022-11-17T07:01:54.357Z,100.00
2022-11-17T07:04:23.281Z,100.00
2022-11-17T07:06:51.358Z,100.00
2022-11-17T07:09:19.008Z,100.00
2022-11-17T07:11:46.568Z,100.00
2022-11-17T07:14:14.253Z,100.00
2022-11-17T07:16:42.630Z,100.00
2022-11-17T07:19:10.734Z,100.00
2022-11-17T07:21:39.796Z,100.00
2022-11-17T07:24:08.625Z,100.00
2022-11-17T07:26:36.466Z,100.00
2022-11-17T07:29:04.482Z,100.00
2022-11-17T07:31:32.106Z,100.00
2022-11-17T07:33:59.827Z,100.00
2022-11-17T07:36:27.568Z,100.00
2022-11-17T07:38:56.531Z,100.00
2022-11-17T07:41:24.211Z,100.00
2022-11-17T07:43:51.840Z,100.00
2022-11-17T07:46:19.503Z,100.00
2022-11-17T07:48:47.112Z,100.00
2022-11-17T07:51:15.803Z,100.00
2022-11-17T07:53:43.484Z,100.00
2022-11-17T07:56:13.105Z,100.00
2022-11-17T07:58:41.674Z,100.00
2022-11-17T08:01:10.678Z,100.00
2022-11-17T08:03:38.382Z,100.00
2022-11-17T08:06:07.744Z,100.00
2022-11-17T08:08:35.781Z,100.00
2022-11-17T08:11:05.056Z,100.00
2022-11-17T08:13:34.491Z,100.00
2022-11-17T08:16:02.218Z,100.00
2022-11-17T08:18:30.867Z,100.00
2022-11-17T08:21:06.042Z,100.00
2022-11-17T08:23:34.445Z,100.00
2022-11-17T08:26:03.442Z,100.00
2022-11-17T08:28:31.125Z,100.00
2022-11-17T08:31:01.329Z,100.00
2022-11-17T08:33:29.164Z,100.00
2022-11-17T08:35:57.973Z,100.00
2022-11-17T08:38:28.825Z,100.00
2022-11-17T08:40:56.633Z,100.00
2022-11-17T08:43:24.613Z,100.00
2022-11-17T08:45:52.481Z,100.00
2022-11-17T08:48:21.672Z,100.00
2022-11-17T08:50:49.597Z,100.00
2022-11-17T08:53:19.097Z,100.00
2022-11-17T08:55:47.106Z,100.00
2022-11-17T08:58:14.906Z,100.00
2022-11-17T09:00:45.224Z,100.00
2022-11-17T09:03:13.057Z,100.00
2022-11-17T09:05:44.358Z,100.00
2022-11-17T09:08:43.782Z,100.00
2022-11-17T09:11:05.183Z,100.00
2022-11-17T09:13:33.737Z,100.00
2022-11-17T09:16:02.332Z,100.00
2022-11-17T09:18:29.956Z,100.00
2022-11-17T09:21:02.033Z,100.00
2022-11-17T09:23:31.545Z,100.00
2022-11-17T09:25:59.502Z,100.00
2022-11-17T09:28:27.178Z,100.00
2022-11-17T09:30:55.027Z,100.00
2022-11-17T09:33:22.715Z,100.00
2022-11-17T09:35:50.734Z,100.00
2022-11-17T09:38:19.824Z,100.00
2022-11-17T09:40:47.687Z,100.00
2022-11-17T09:43:26.625Z,100.00
2022-11-17T09:46:00.780Z,100.00
2022-11-17T09:48:41.774Z,100.00
2022-11-17T09:51:14.794Z,100.00
2022-11-17T09:53:50.557Z,100.00
2022-11-17T09:56:18.296Z,100.00
2022-11-17T09:58:51.956Z,100.00
2022-11-17T10:01:21.375Z,100.00
2022-11-17T10:03:51.364Z,100.00
2022-11-17T10:06:22.160Z,100.00
2022-11-17T10:08:59.092Z,100.00
2022-11-17T10:11:32.970Z,100.00
2022-11-17T10:14:04.946Z,100.00
2022-11-17T10:16:32.812Z,100.00
2022-11-17T10:19:10.998Z,100.00
2022-11-17T10:21:39.034Z,100.00
2022-11-17T10:24:08.911Z,100.00
2022-11-17T10:26:46.716Z,100.00
2022-11-17T10:29:15.841Z,100.00
2022-11-17T10:31:45.403Z,100.00
2022-11-17T10:34:37.033Z,100.00
2022-11-17T10:37:25.661Z,100.00
2022-11-17T10:40:09.818Z,100.00
2022-11-17T10:42:37.477Z,100.00
2022-11-17T10:45:07.114Z,100.00
2022-11-17T10:47:39.748Z,100.00
2022-11-17T10:50:22.538Z,100.00
2022-11-17T10:52:55.558Z,100.00
2022-11-17T10:55:31.425Z,100.00
2022-11-17T10:58:05.926Z,100.00
2022-11-17T11:00:35.042Z,100.00
2022-11-17T11:03:18.390Z,100.00
2022-11-17T11:06:05.568Z,100.00
2022-11-17T11:08:48.143Z,100.00
2022-11-17T11:11:36.228Z,100.00
2022-11-17T11:14:13.609Z,100.00
2022-11-17T11:16:47.657Z,100.00
2022-11-17T11:19:18.058Z,100.00
2022-11-17T11:22:02.624Z,100.00
2022-11-17T11:24:39.841Z,100.00
2022-11-17T11:27:24.592Z,100.00
2022-11-17T11:30:02.010Z,100.00
2022-11-17T11:32:41.853Z,100.00
2022-11-17T11:35:41.878Z,100.00
2022-11-17T11:38:19.457Z,100.00
2022-11-17T11:40:59.994Z,100.00
2022-11-17T11:43:38.882Z,100.00
2022-11-17T11:46:14.711Z,100.00
2022-11-17T11:48:42.612Z,100.00
2022-11-17T11:51:15.749Z,100.00
2022-11-17T11:53:51.534Z,100.00
2022-11-17T11:56:23.544Z,100.00
2022-11-17T11:58:58.125Z,100.00
2022-11-17T12:01:27.295Z,100.00
2022-11-17T12:04:07.176Z,100.00
2022-11-17T12:06:43.026Z,100.00
2022-11-17T12:09:37.530Z,100.00
2022-11-17T12:12:09.382Z,100.00
2022-11-17T12:14:39.458Z,100.00
2022-11-17T12:17:23.314Z,100.00
2022-11-17T12:19:55.244Z,100.00
2022-11-17T12:22:51.098Z,100.00
2022-11-17T12:25:20.789Z,100.00
2022-11-17T12:27:50.915Z,100.00
2022-11-17T12:30:55.240Z,100.00
2022-11-17T12:33:23.729Z,100.00
2022-11-17T12:36:30.468Z,100.00
2022-11-17T12:38:59.527Z,100.00
2022-11-17T12:42:04.670Z,100.00
2022-11-17T12:45:00.697Z,100.00
2022-11-17T12:47:31.700Z,100.00
2022-11-17T12:50:27.134Z,100.00
2022-11-17T12:53:13.675Z,100.00
2022-11-17T12:55:59.774Z,100.00
2022-11-17T12:58:36.250Z,100.00
2022-11-17T13:01:12.276Z,100.00
2022-11-17T13:03:46.017Z,100.00
2022-11-17T13:09:07.066Z,100.00
2022-11-17T13:11:35.561Z,100.00
2022-11-17T13:14:11.981Z,100.00
2022-11-17T13:16:46.899Z,100.00
2022-11-17T13:19:34.965Z,100.00
2022-11-17T13:22:06.455Z,100.00
2022-11-17T13:24:35.847Z,100.00
2022-11-17T13:27:07.957Z,100.00
2022-11-17T13:29:35.870Z,100.00
2022-11-17T13:32:17.474Z,100.00
2022-11-17T13:34:57.272Z,100.00
2022-11-17T13:37:26.926Z,100.00
2022-11-17T13:39:59.374Z,100.00
2022-11-17T13:42:30.765Z,100.00
2022-11-17T13:45:02.504Z,100.00
2022-11-17T13:47:45.315Z,100.00
2022-11-17T13:50:33.137Z,100.00
2022-11-17T13:53:02.359Z,100.00
2022-11-17T13:55:31.030Z,100.00
2022-11-17T13:58:01.786Z,100.00
2022-11-17T14:00:31.352Z,100.00
2022-11-17T14:03:00.051Z,100.00
2022-11-17T14:05:30.308Z,100.00
2022-11-17T14:07:59.866Z,100.00
2022-11-17T14:10:34.224Z,100.00
2022-11-17T14:13:20.218Z,100.00
2022-11-17T14:15:54.220Z,100.00
2022-11-17T14:18:28.650Z,100.00
2022-11-17T14:21:16.475Z,100.00
2022-11-17T14:23:45.602Z,100.00
2022-11-17T14:26:23.325Z,100.00
2022-11-17T14:28:53.096Z,100.00
2022-11-17T14:31:22.003Z,100.00
2022-11-17T14:33:50.655Z,100.00
2022-11-17T14:36:19.899Z,100.00
2022-11-17T14:38:48.633Z,100.00
2022-11-17T14:41:17.313Z,100.00
2022-11-17T14:43:45.375Z,100.00
2022-11-17T14:46:19.614Z,100.00
2022-11-17T14:48:47.320Z,100.00
2022-11-17T14:51:16.145Z,100.00
2022-11-17T14:53:45.930Z,100.00
2022-11-17T14:56:15.674Z,100.00
2022-11-17T14:58:43.300Z,100.00
2022-11-17T15:01:12.022Z,100.00
2022-11-17T15:03:39.808Z,100.00
2022-11-17T15:06:09.437Z,100.00
2022-11-17T15:08:37.562Z,100.00
2022-11-17T15:11:07.158Z,100.00
2022-11-17T15:13:34.811Z,100.00
2022-11-17T15:16:04.018Z,100.00
2022-11-17T15:18:32.143Z,100.00
2022-11-17T15:21:03.920Z,100.00
2022-11-17T15:23:31.994Z,100.00
2022-11-17T15:26:00.366Z,100.00
2022-11-17T15:28:30.509Z,100.00
2022-11-17T15:30:58.355Z,100.00
2022-11-17T15:33:26.109Z,100.00
2022-11-17T15:36:01.879Z,100.00
2022-11-17T15:38:29.509Z,100.00
2022-11-17T15:40:57.128Z,100.00
2022-11-17T15:43:29.289Z,100.00
2022-11-17T15:46:04.783Z,100.00
2022-11-17T15:48:32.989Z,100.00
2022-11-17T15:51:02.979Z,100.00
2022-11-17T15:53:32.032Z,100.00
2022-11-17T15:56:07.432Z,100.00
2022-11-17T15:58:37.159Z,100.00
2022-11-17T16:01:09.964Z,100.00
2022-11-17T16:03:38.129Z,100.00
2022-11-17T16:06:06.381Z,100.00
2022-11-17T16:08:34.422Z,100.00
2022-11-17T16:11:02.560Z,100.00
2022-11-17T16:13:30.309Z,100.00
2022-11-17T16:15:59.479Z,100.00
2022-11-17T16:18:27.161Z,100.00
2022-11-17T16:20:55.567Z,100.00
2022-11-17T16:23:24.539Z,100.00
2022-11-17T16:25:52.188Z,100.00
2022-11-17T16:28:20.037Z,100.00
2022-11-17T16:30:47.796Z,100.00
2022-11-17T16:33:17.011Z,100.00
2022-11-17T16:35:45.520Z,100.00
2022-11-17T16:38:15.142Z,100.00
2022-11-17T16:40:43.215Z,100.00
2022-11-17T16:43:11.784Z,100.00
2022-11-17T16:45:44.431Z,100.00
2022-11-17T16:48:12.517Z,100.00
2022-11-17T16:50:42.693Z,100.00
2022-11-17T16:53:10.531Z,100.00
2022-11-17T16:55:39.119Z,100.00
2022-11-17T16:58:08.113Z,100.00
2022-11-17T17:00:35.856Z,100.00
2022-11-17T17:03:03.910Z,100.00
2022-11-17T17:05:31.658Z,100.00
2022-11-17T17:08:00.609Z,100.00
2022-11-17T17:10:28.274Z,100.00
2022-11-17T17:12:55.884Z,100.00
2022-11-17T17:15:23.535Z,100.00
2022-11-17T17:17:51.203Z,100.00
2022-11-17T17:20:19.074Z,100.00
2022-11-17T17:22:46.747Z,100.00
2022-11-17T17:25:16.008Z,100.00
2022-11-17T17:27:43.796Z,100.00
2022-11-17T17:30:12.630Z,100.00
2022-11-17T17:32:40.300Z,100.00
2022-11-17T17:35:08.693Z,100.00
2022-11-17T17:37:36.309Z,100.00
2022-11-17T17:40:04.755Z,100.00
2022-11-17T17:42:33.755Z,100.00
2022-11-17T17:45:01.470Z,100.00
2022-11-17T17:47:29.092Z,100.00
2022-11-17T17:49:56.824Z,100.00
2022-11-17T17:52:24.455Z,100.00
2022-11-17T17:54:52.141Z,100.00
2022-11-17T17:57:19.780Z,100.00
2022-11-17T17:59:48.786Z,100.00
2022-11-17T18:02:16.409Z,100.00
2022-11-17T18:04:44.091Z,100.00
2022-11-17T18:07:11.808Z,100.00
2022-11-17T18:09:39.446Z,100.00
2022-11-17T18:12:07.142Z,100.00
2022-11-17T18:14:34.763Z,100.00
2022-11-17T18:17:03.854Z,100.00
2022-11-17T18:19:33.182Z,100.00
2022-11-17T18:22:01.380Z,100.00
2022-11-17T18:24:29.228Z,100.00
2022-11-17T18:26:56.871Z,100.00
2022-11-17T18:29:24.824Z,100.00
2022-11-17T18:31:52.443Z,100.00
2022-11-17T18:34:23.024Z,100.00
2022-11-17T18:36:52.070Z,100.00
2022-11-17T18:39:21.179Z,100.00
2022-11-17T18:41:48.955Z,100.00
2022-11-17T18:44:19.272Z,100.00
2022-11-17T18:46:47.088Z,100.00
2022-11-17T18:49:15.226Z,100.00
2022-11-17T18:51:44.492Z,100.00
2022-11-17T18:54:12.249Z,100.00
2022-11-17T18:56:39.942Z,100.00
2022-11-17T18:59:11.391Z,100.00
2022-11-17T19:01:43.893Z,100.00
2022-11-17T19:04:13.357Z,100.00
2022-11-17T19:06:41.168Z,100.00
2022-11-17T19:09:10.743Z,100.00
2022-11-17T19:11:38.457Z,100.00
2022-11-17T19:14:06.154Z,100.00
2022-11-17T19:16:41.057Z,100.00
2022-11-17T19:19:13.006Z,100.00
2022-11-17T19:21:41.100Z,100.00
2022-11-17T19:24:10.319Z,100.00
2022-11-17T19:26:38.144Z,100.00
2022-11-17T19:29:14.261Z,100.00
2022-11-17T19:31:43.589Z,100.00
2022-11-17T19:34:11.543Z,100.00
2022-11-17T19:36:39.428Z,100.00
2022-11-17T19:39:07.232Z,100.00
2022-11-17T19:41:38.252Z,100.00
2022-11-17T19:44:07.873Z,100.00
2022-11-17T19:46:36.518Z,100.00
2022-11-17T19:49:05.843Z,100.00
2022-11-17T19:51:36.324Z,100.00
2022-11-17T19:54:05.682Z,100.00
2022-11-17T19:56:33.658Z,100.00
2022-11-17T19:59:02.889Z,100.00
2022-11-17T20:01:30.739Z,100.00
2022-11-17T20:03:59.981Z,100.00
2022-11-17T20:06:29.749Z,100.00
2022-11-17T20:08:58.267Z,100.00
2022-11-17T20:11:27.989Z,100.00
2022-11-17T20:13:56.192Z,100.00
2022-11-17T20:16:27.562Z,100.00
2022-11-17T20:18:57.211Z,100.00
2022-11-17T20:21:25.524Z,100.00
2022-11-17T20:23:53.247Z,100.00
2022-11-17T20:26:26.140Z,100.00
2022-11-17T20:28:53.812Z,100.00
2022-11-17T20:31:24.215Z,100.00
2022-11-17T20:33:57.486Z,100.00
2022-11-17T20:36:25.547Z,100.00
2022-11-17T20:38:54.347Z,100.00
2022-11-17T20:41:23.251Z,100.00
2022-11-17T20:43:52.327Z,100.00
2022-11-17T20:46:20.722Z,100.00
2022-11-17T20:48:48.833Z,100.00
2022-11-17T20:51:19.953Z,100.00
2022-11-17T20:53:47.616Z,100.00
2022-11-17T20:56:16.954Z,100.00
2022-11-17T20:58:44.927Z,100.00
2022-11-17T21:01:14.680Z,100.00
2022-11-17T21:04:01.457Z,100.00
2022-11-17T21:06:50.705Z,100.00
2022-11-17T21:09:38.624Z,100.00
2022-11-17T21:12:27.123Z,100.00
2022-11-17T21:15:15.009Z,100.00
2022-11-17T21:18:20.534Z,100.00
2022-11-17T21:21:09.434Z,100.00
2022-11-17T21:23:58.738Z,100.00
2022-11-17T21:26:46.706Z,100.00
2022-11-17T21:29:34.589Z,100.00
2022-11-17T21:32:22.788Z,100.00
2022-11-17T21:35:10.958Z,100.00
2022-11-17T21:37:59.895Z,100.00
2022-11-17T21:40:49.129Z,100.00
2022-11-17T21:43:37.935Z,100.00
2022-11-17T21:46:28.380Z,100.00
2022-11-17T21:49:16.373Z,100.00
2022-11-17T21:52:04.528Z,100.00
2022-11-17T21:54:52.423Z,100.00
2022-11-17T21:57:41.666Z,100.00
2022-11-17T22:00:29.643Z,100.00
2022-11-17T22:03:17.542Z,100.00
2022-11-17T22:06:07.409Z,100.00
2022-11-17T22:08:56.834Z,100.00
2022-11-17T22:11:44.730Z,100.00
2022-11-17T22:14:33.981Z,100.00
2022-11-17T22:17:21.878Z,100.00
2022-11-17T22:20:10.865Z,100.00
2022-11-17T22:22:58.793Z,100.00
2022-11-17T22:25:53.785Z,100.00
2022-11-17T22:28:41.708Z,100.00
2022-11-17T22:31:31.123Z,100.00
2022-11-17T22:34:19.578Z,100.00
2022-11-17T22:37:07.488Z,100.00
2022-11-17T22:39:55.480Z,100.00
2022-11-17T22:42:43.372Z,100.00
2022-11-17T22:45:31.345Z,100.00
2022-11-17T22:48:20.613Z,100.00
2022-11-17T22:51:09.115Z,100.00
2022-11-17T22:53:57.032Z,100.00
2022-11-17T22:56:44.962Z,100.00
2022-11-17T22:59:33.193Z,100.00
2022-11-17T23:02:21.103Z,100.00
2022-11-17T23:05:10.467Z,100.00
2022-11-17T23:07:58.373Z,100.00
2022-11-17T23:10:46.300Z,100.00
2022-11-17T23:13:34.337Z,100.00
2022-11-17T23:16:22.366Z,100.00
2022-11-17T23:19:14.079Z,100.00
2022-11-17T23:22:03.416Z,100.00
2022-11-17T23:24:51.323Z,100.00
2022-11-17T23:27:39.217Z,100.00
2022-11-17T23:30:27.095Z,100.00
2022-11-17T23:33:15.053Z,100.00
2022-11-17T23:36:03.391Z,100.00
2022-11-17T23:38:53.325Z,100.00
2022-11-17T23:41:41.260Z,100.00
2022-11-17T23:44:29.211Z,100.00
2022-11-17T23:47:17.112Z,100.00
2022-11-17T23:50:05.844Z,100.00
2022-11-17T23:52:53.769Z,100.00
2022-11-17T23:55:43.102Z,100.00
2022-11-17T23:58:31.295Z,100.00
